createdAt,value
2018-12-26T00:00:54.009Z,99.90
2018-12-26T00:03:34.294Z,99.90
2018-12-26T00:06:14.332Z,99.90
2018-12-26T00:08:54.397Z,99.90
2018-12-26T00:11:34.455Z,99.90
2018-12-26T00:14:14.662Z,99.90
2018-12-26T00:16:41.880Z,99.90
2018-12-26T00:19:28.354Z,99.90
2018-12-26T00:22:14.830Z,99.90
2018-12-26T00:25:01.355Z,99.90
2018-12-26T00:27:47.819Z,99.90
2018-12-26T00:30:34.251Z,99.90
2018-12-26T00:33:20.740Z,99.90
2018-12-26T00:36:07.262Z,99.90
2018-12-26T00:38:54.062Z,99.90
2018-12-26T00:41:40.752Z,99.90
2018-12-26T00:44:27.157Z,99.90
2018-12-26T00:47:13.869Z,99.90
2018-12-26T00:50:00.363Z,99.90
2018-12-26T00:52:46.934Z,99.90
2018-12-26T00:55:33.379Z,99.90
2018-12-26T00:58:12.938Z,99.90
2018-12-26T01:00:53.297Z,99.90
2018-12-26T01:03:33.146Z,99.90
2018-12-26T01:06:13.216Z,99.90
2018-12-26T01:08:53.378Z,99.90
2018-12-26T01:11:33.411Z,99.90
2018-12-26T01:14:13.462Z,99.90
2018-12-26T01:16:53.551Z,99.90
2018-12-26T01:19:33.782Z,99.90
2018-12-26T01:22:12.960Z,99.90
2018-12-26T01:24:53.062Z,99.90
2018-12-26T01:27:33.030Z,99.90
2018-12-26T01:30:13.170Z,99.90
2018-12-26T01:32:53.307Z,99.90
2018-12-26T01:35:32.970Z,99.90
2018-12-26T01:38:13.138Z,99.90
2018-12-26T01:40:53.675Z,99.90
2018-12-26T01:43:33.791Z,99.90
2018-12-26T01:46:13.401Z,99.90
2018-12-26T01:48:53.430Z,99.90
2018-12-26T01:51:33.351Z,99.90
2018-12-26T01:54:13.375Z,99.90
2018-12-26T01:56:53.355Z,99.90
2018-12-26T01:59:33.452Z,99.90
2018-12-26T02:02:13.569Z,99.90
2018-12-26T02:04:53.376Z,99.90
2018-12-26T02:07:33.340Z,99.90
2018-12-26T02:10:13.522Z,99.90
2018-12-26T02:12:53.435Z,99.90
2018-12-26T02:15:20.215Z,99.90
2018-12-26T02:18:06.960Z,99.90
2018-12-26T02:20:53.697Z,99.90
2018-12-26T02:23:20.769Z,99.90
2018-12-26T02:26:07.499Z,99.90
2018-12-26T02:28:34.657Z,99.90
2018-12-26T02:31:21.339Z,99.90
2018-12-26T02:34:07.793Z,99.90
2018-12-26T02:36:54.408Z,99.90
2018-12-26T02:39:41.427Z,99.90
2018-12-26T02:42:08.462Z,99.90
2018-12-26T02:44:55.382Z,99.90
2018-12-26T02:47:42.001Z,99.90
2018-12-26T02:50:28.423Z,99.90
2018-12-26T02:53:15.104Z,99.90
2018-12-26T02:56:01.747Z,99.90
2018-12-26T02:58:41.743Z,99.90
2018-12-26T03:01:20.873Z,99.90
2018-12-26T03:04:01.110Z,99.90
2018-12-26T03:06:41.130Z,99.90
2018-12-26T03:09:20.722Z,99.90
2018-12-26T03:12:00.617Z,99.90
2018-12-26T03:14:40.875Z,99.90
2018-12-26T03:17:21.008Z,99.90
2018-12-26T03:20:00.223Z,99.90
2018-12-26T03:22:40.410Z,99.90
2018-12-26T03:25:20.283Z,99.90
2018-12-26T03:35:57.802Z,99.90
2018-12-26T03:38:37.914Z,99.90
2018-12-26T03:41:18.222Z,99.90
2018-12-26T03:43:57.950Z,99.90
2018-12-26T03:52:48.516Z,99.90
2018-12-26T03:55:28.785Z,99.90
2018-12-26T03:58:08.557Z,99.90
2018-12-26T04:00:48.902Z,99.90
2018-12-26T04:03:28.872Z,99.90
2018-12-26T04:06:08.859Z,99.90
2018-12-26T04:08:48.854Z,99.90
2018-12-26T04:11:29.094Z,99.90
2018-12-26T04:14:08.979Z,99.90
2018-12-26T04:16:49.270Z,99.90
2018-12-26T04:19:16.370Z,99.90
2018-12-26T04:22:02.883Z,99.90
2018-12-26T04:24:49.661Z,99.90
2018-12-26T04:27:16.809Z,99.90
2018-12-26T04:30:03.649Z,99.90
2018-12-26T04:32:50.062Z,99.90
2018-12-26T04:35:36.574Z,99.90
2018-12-26T04:38:22.996Z,99.90
2018-12-26T04:41:09.422Z,99.90
2018-12-26T04:43:56.075Z,99.90
2018-12-26T04:46:42.514Z,99.90
2018-12-26T04:49:28.969Z,99.90
2018-12-26T04:52:15.652Z,99.90
2018-12-26T04:55:02.284Z,99.90
2018-12-26T04:57:48.802Z,99.90
2018-12-26T05:00:35.334Z,99.90
2018-12-26T05:03:21.994Z,99.90
2018-12-26T05:06:08.432Z,99.90
2018-12-26T05:08:54.835Z,99.90
2018-12-26T05:11:41.363Z,99.90
2018-12-26T05:14:27.994Z,99.90
2018-12-26T05:17:14.406Z,99.90
2018-12-26T05:20:01.078Z,99.90
2018-12-26T05:22:47.501Z,99.90
2018-12-26T05:25:34.011Z,99.90
2018-12-26T05:28:20.538Z,99.90
2018-12-26T05:31:07.488Z,99.90
2018-12-26T05:33:53.918Z,99.90
2018-12-26T05:36:40.547Z,99.90
2018-12-26T05:39:26.975Z,99.90
2018-12-26T05:42:13.682Z,99.90
2018-12-26T05:45:00.442Z,99.90
2018-12-26T05:47:46.950Z,99.90
2018-12-26T05:50:33.466Z,99.90
2018-12-26T05:53:20.359Z,99.90
2018-12-26T05:56:06.823Z,99.90
2018-12-26T05:58:46.948Z,99.90
2018-12-26T06:01:27.600Z,99.90
2018-12-26T06:04:07.407Z,99.90
2018-12-26T06:06:47.031Z,99.90
2018-12-26T06:09:26.628Z,99.90
2018-12-26T06:12:06.253Z,99.90
2018-12-26T06:14:46.206Z,99.90
2018-12-26T06:17:25.414Z,99.90
2018-12-26T06:20:05.911Z,99.90
2018-12-26T06:22:45.728Z,99.90
2018-12-26T06:25:25.705Z,99.90
2018-12-26T06:28:05.146Z,99.90
2018-12-26T06:30:44.810Z,99.90
2018-12-26T06:33:26.607Z,99.90
2018-12-26T06:36:06.024Z,99.90
2018-12-26T06:38:46.184Z,99.90
2018-12-26T06:41:26.146Z,99.90
2018-12-26T06:44:06.113Z,99.90
2018-12-26T06:46:46.151Z,99.90
2018-12-26T06:49:26.579Z,99.90
2018-12-26T06:52:06.480Z,99.90
2018-12-26T06:54:46.514Z,99.90
2018-12-26T06:57:26.670Z,99.90
2018-12-26T07:00:06.798Z,99.90
2018-12-26T07:02:46.719Z,99.90
2018-12-26T07:05:27.168Z,99.90
2018-12-26T07:08:06.991Z,99.90
2018-12-26T07:10:46.990Z,99.90
2018-12-26T07:13:27.163Z,99.90
2018-12-26T07:16:07.422Z,99.90
2018-12-26T07:18:47.558Z,99.90
2018-12-26T07:21:27.742Z,99.90
2018-12-26T07:24:07.874Z,99.90
2018-12-26T07:26:48.020Z,99.90
2018-12-26T07:29:27.968Z,99.90
2018-12-26T07:32:07.858Z,99.90
2018-12-26T07:34:48.188Z,99.90
2018-12-26T07:37:28.230Z,99.90
2018-12-26T07:40:08.195Z,99.90
2018-12-26T07:42:48.209Z,99.90
2018-12-26T07:45:28.476Z,99.90
2018-12-26T07:48:08.175Z,99.90
2018-12-26T07:50:48.306Z,99.90
2018-12-26T07:53:28.684Z,99.90
2018-12-26T07:56:08.330Z,99.90
2018-12-26T07:58:48.297Z,99.90
2018-12-26T08:01:28.212Z,99.90
2018-12-26T08:04:07.662Z,99.90
2018-12-26T08:06:47.522Z,99.90
2018-12-26T08:09:27.810Z,99.90
2018-12-26T08:12:07.612Z,99.90
2018-12-26T08:14:35.284Z,99.90
2018-12-26T08:17:21.701Z,99.90
2018-12-26T08:20:08.322Z,99.90
2018-12-26T08:22:55.015Z,99.90
2018-12-26T08:25:42.033Z,99.90
2018-12-26T08:28:28.913Z,99.90
2018-12-26T08:31:15.332Z,99.90
2018-12-26T08:34:02.243Z,99.90
2018-12-26T08:36:48.665Z,99.90
2018-12-26T08:39:35.450Z,99.90
2018-12-26T08:42:22.469Z,99.90
2018-12-26T08:45:08.906Z,99.90
2018-12-26T08:47:55.318Z,99.90
2018-12-26T08:50:41.740Z,99.90
2018-12-26T08:53:28.154Z,99.90
2018-12-26T08:56:14.615Z,99.90
2018-12-26T08:58:54.736Z,99.90
2018-12-26T09:01:34.639Z,99.90
2018-12-26T09:04:01.783Z,99.90
2018-12-26T09:06:48.290Z,99.90
2018-12-26T09:09:34.993Z,99.90
2018-12-26T09:12:21.432Z,99.90
2018-12-26T09:15:08.075Z,99.90
2018-12-26T09:17:35.052Z,99.90
2018-12-26T09:20:01.927Z,99.90
2018-12-26T09:22:48.662Z,99.90
2018-12-26T09:25:15.446Z,97.40
2018-12-26T09:28:01.965Z,91.60
2018-12-26T09:30:48.485Z,93.90
2018-12-26T09:33:34.999Z,92.80
2018-12-26T09:36:22.121Z,94.80
2018-12-26T09:39:08.750Z,81.50
2018-12-26T09:41:55.213Z,85.80
2018-12-26T09:44:22.185Z,68.90
2018-12-26T09:47:08.635Z,62.10
2018-12-26T09:49:55.404Z,68.80
2018-12-26T09:52:42.137Z,68.90
2018-12-26T09:55:28.730Z,57.40
2018-12-26T09:58:08.446Z,65.90
2018-12-26T10:00:48.433Z,63.00
2018-12-26T10:03:28.759Z,64.90
2018-12-26T10:06:08.620Z,67.70
2018-12-26T10:08:48.695Z,64.50
2018-12-26T10:11:15.669Z,61.00
2018-12-26T10:14:02.164Z,58.50
2018-12-26T10:16:48.886Z,61.90
2018-12-26T10:19:16.080Z,63.00
2018-12-26T10:22:02.857Z,62.30
2018-12-26T10:24:50.026Z,65.20
2018-12-26T10:27:36.870Z,60.90
2018-12-26T10:30:23.513Z,57.90
2018-12-26T10:32:50.391Z,56.10
2018-12-26T10:35:36.869Z,58.50
2018-12-26T10:38:23.258Z,62.30
2018-12-26T10:41:09.954Z,76.30
2018-12-26T10:43:56.458Z,99.90
2018-12-26T10:46:42.873Z,99.90
2018-12-26T10:49:29.376Z,99.90
2018-12-26T10:52:16.009Z,99.90
2018-12-26T10:55:02.532Z,99.90
2018-12-26T10:57:49.412Z,99.90
2018-12-26T11:00:16.358Z,99.90
2018-12-26T11:03:02.850Z,99.90
2018-12-26T11:05:49.260Z,99.90
2018-12-26T11:08:16.393Z,99.90
2018-12-26T11:11:02.905Z,99.90
2018-12-26T11:13:49.307Z,99.90
2018-12-26T11:16:16.493Z,99.90
2018-12-26T11:19:03.068Z,99.90
2018-12-26T11:21:49.726Z,99.90
2018-12-26T11:24:36.333Z,99.90
2018-12-26T11:27:22.977Z,99.90
2018-12-26T11:30:09.755Z,99.90
2018-12-26T11:32:56.123Z,99.90
2018-12-26T11:35:42.539Z,99.90
2018-12-26T11:38:29.065Z,99.90
2018-12-26T11:41:15.575Z,99.90
2018-12-26T11:44:01.968Z,99.90
2018-12-26T11:46:48.348Z,99.90
2018-12-26T11:49:34.748Z,99.90
2018-12-26T11:52:21.150Z,99.90
2018-12-26T11:55:08.105Z,99.90
2018-12-26T11:57:54.623Z,99.90
2018-12-26T12:00:41.150Z,99.90
2018-12-26T12:03:27.557Z,99.90
2018-12-26T12:06:13.972Z,99.90
2018-12-26T12:09:00.713Z,99.90
2018-12-26T12:11:47.265Z,99.90
2018-12-26T12:14:33.777Z,99.90
2018-12-26T12:17:20.286Z,99.90
2018-12-26T12:20:07.669Z,99.90
2018-12-26T12:22:54.529Z,99.90
2018-12-26T12:25:41.033Z,99.90
2018-12-26T12:28:27.541Z,99.90
2018-12-26T12:31:13.965Z,99.90
2018-12-26T12:34:00.349Z,99.90
2018-12-26T12:36:46.842Z,99.90
2018-12-26T12:39:33.325Z,99.90
2018-12-26T12:45:16.010Z,99.90
2018-12-26T12:48:02.500Z,99.90
2018-12-26T12:50:48.892Z,99.90
2018-12-26T12:53:35.297Z,99.90
2018-12-26T12:56:22.113Z,99.90
2018-12-26T12:59:01.727Z,99.90
2018-12-26T13:01:42.016Z,99.90
2018-12-26T13:04:22.021Z,99.90
2018-12-26T13:07:01.403Z,99.90
2018-12-26T13:09:41.460Z,99.90
2018-12-26T13:12:21.470Z,99.90
2018-12-26T13:15:00.616Z,99.90
2018-12-26T13:17:40.611Z,99.90
2018-12-26T13:25:38.396Z,99.90
2018-12-26T13:28:18.718Z,99.90
2018-12-26T13:31:05.153Z,99.90
2018-12-26T13:33:39.803Z,99.90
2018-12-26T13:36:19.925Z,99.90
2018-12-26T13:39:00.069Z,99.90
2018-12-26T13:44:52.086Z,99.90
2018-12-26T13:47:32.198Z,99.90
2018-12-26T13:50:12.258Z,99.90
2018-12-26T13:52:52.309Z,99.90
2018-12-26T13:55:32.542Z,99.90
2018-12-26T13:58:12.659Z,99.90
2018-12-26T14:00:52.757Z,99.90
2018-12-26T14:03:32.566Z,99.90
2018-12-26T14:06:12.016Z,99.90
2018-12-26T14:08:52.182Z,99.90
2018-12-26T14:11:32.474Z,99.90
2018-12-26T14:14:12.661Z,99.90
2018-12-26T14:16:52.434Z,99.90
2018-12-26T14:19:32.495Z,99.90
2018-12-26T14:22:11.733Z,95.70
2018-12-26T14:24:52.083Z,95.20
2018-12-26T14:27:18.866Z,93.00
2018-12-26T14:30:11.145Z,99.90
2018-12-26T14:32:54.604Z,99.90
2018-12-26T14:38:27.640Z,99.90
2018-12-26T14:41:14.043Z,99.90
2018-12-26T14:44:00.500Z,99.90
2018-12-26T14:46:47.064Z,99.90
2018-12-26T14:49:33.709Z,99.90
2018-12-26T14:55:06.352Z,99.90
2018-12-26T15:00:32.193Z,99.90
2018-12-26T15:03:11.538Z,99.90
2018-12-26T15:05:51.530Z,99.90
2018-12-26T15:08:31.578Z,99.90
2018-12-26T15:11:11.765Z,99.90
2018-12-26T15:13:51.785Z,99.90
2018-12-26T15:19:43.955Z,99.90
2018-12-26T15:22:23.156Z,99.90
2018-12-26T15:25:03.096Z,99.90
2018-12-26T15:27:43.049Z,99.90
2018-12-26T15:30:28.532Z,99.90
2018-12-26T15:33:05.001Z,99.90
2018-12-26T15:35:44.855Z,99.90
2018-12-26T15:38:10.864Z,99.90
2018-12-26T15:40:48.421Z,99.90
2018-12-26T15:43:34.808Z,99.90
2018-12-26T15:46:21.730Z,99.90
2018-12-26T15:49:08.133Z,99.90
2018-12-26T15:51:54.561Z,99.90
2018-12-26T15:54:41.149Z,99.90
2018-12-26T15:57:27.645Z,99.90
2018-12-26T16:00:07.414Z,99.90
2018-12-26T16:02:47.459Z,99.90
2018-12-26T16:05:27.715Z,99.90
2018-12-26T16:08:07.531Z,99.90
2018-12-26T16:10:34.649Z,99.90
2018-12-26T16:13:21.093Z,99.90
2018-12-26T16:16:07.509Z,99.90
2018-12-26T16:18:53.919Z,99.90
2018-12-26T16:21:40.444Z,99.90
2018-12-26T16:24:26.999Z,99.90
2018-12-26T16:26:53.771Z,99.90
2018-12-26T16:29:40.176Z,99.90
2018-12-26T16:32:26.806Z,99.90
2018-12-26T16:35:13.306Z,99.90
2018-12-26T16:38:01.693Z,99.90
2018-12-26T16:40:48.029Z,99.90
2018-12-26T16:43:34.695Z,99.90
2018-12-26T16:46:21.108Z,99.90
2018-12-26T16:49:07.496Z,99.90
2018-12-26T16:51:54.177Z,99.90
2018-12-26T16:54:40.819Z,99.90
2018-12-26T16:57:27.639Z,99.90
2018-12-26T17:00:06.936Z,99.90
2018-12-26T17:02:47.081Z,99.90
2018-12-26T17:05:27.204Z,99.90
2018-12-26T17:07:53.965Z,99.90
2018-12-26T17:10:40.690Z,99.90
2018-12-26T17:13:27.118Z,99.90
2018-12-26T17:16:13.818Z,99.90
2018-12-26T17:19:00.232Z,99.90
2018-12-26T17:21:46.607Z,99.90
2018-12-26T17:24:33.363Z,99.90
2018-12-26T17:27:20.026Z,99.90
2018-12-26T17:30:06.848Z,99.90
2018-12-26T17:33:00.533Z,99.90
2018-12-26T17:35:42.136Z,99.90
2018-12-26T17:38:28.823Z,99.90
2018-12-26T17:41:15.301Z,99.90
2018-12-26T17:44:02.250Z,99.90
2018-12-26T17:46:49.341Z,99.90
2018-12-26T17:49:17.247Z,99.90
2018-12-26T17:52:04.695Z,99.90
2018-12-26T17:55:00.958Z,99.90
2018-12-26T17:57:51.156Z,99.90
2018-12-26T18:00:31.265Z,99.90
2018-12-26T18:03:11.499Z,99.90
2018-12-26T18:05:51.221Z,99.90
2018-12-26T18:08:31.187Z,99.90
2018-12-26T18:11:11.498Z,99.90
2018-12-26T18:13:38.246Z,99.90
2018-12-26T18:16:24.638Z,99.90
2018-12-26T18:18:51.752Z,99.90
2018-12-26T18:21:38.700Z,99.90
2018-12-26T18:24:25.302Z,99.90
2018-12-26T18:27:13.353Z,99.90
2018-12-26T18:33:34.964Z,99.90
2018-12-26T18:36:29.606Z,99.90
2018-12-26T18:39:16.301Z,99.90
2018-12-26T18:42:03.017Z,99.90
2018-12-26T18:44:49.409Z,99.90
2018-12-26T18:47:35.977Z,99.90
2018-12-26T18:50:22.738Z,99.90
2018-12-26T18:53:09.137Z,99.90
2018-12-26T18:55:55.756Z,99.90
2018-12-26T18:58:35.929Z,99.90
2018-12-26T19:01:16.532Z,99.90
2018-12-26T19:03:43.378Z,99.90
2018-12-26T19:06:30.464Z,99.90
2018-12-26T19:08:57.578Z,99.90
2018-12-26T19:11:43.980Z,99.90
2018-12-26T19:14:30.560Z,99.90
2018-12-26T19:17:16.992Z,99.90
2018-12-26T19:20:03.686Z,99.90
2018-12-26T19:22:50.116Z,99.90
2018-12-26T19:25:17.469Z,99.90
2018-12-26T19:28:03.987Z,99.90
2018-12-26T19:30:50.514Z,99.90
2018-12-26T19:33:37.254Z,99.90
2018-12-26T19:36:23.785Z,99.90
2018-12-26T19:39:10.525Z,99.90
2018-12-26T19:41:37.585Z,99.90
2018-12-26T19:44:24.030Z,99.90
2018-12-26T19:47:10.900Z,99.90
2018-12-26T19:50:04.746Z,99.90
2018-12-26T19:52:46.045Z,99.90
2018-12-26T19:55:12.914Z,99.90
2018-12-26T19:57:59.350Z,99.90
2018-12-26T20:00:26.270Z,99.90
2018-12-26T20:03:12.999Z,99.90
2018-12-26T20:05:40.322Z,99.90
2018-12-26T20:08:27.370Z,99.90
2018-12-26T20:10:56.397Z,99.90
2018-12-26T20:13:42.573Z,99.90
2018-12-26T20:16:28.994Z,99.90
2018-12-26T20:19:15.409Z,99.90
2018-12-26T20:22:02.285Z,99.90
2018-12-26T20:24:49.030Z,99.90
2018-12-26T20:27:35.538Z,99.90
2018-12-26T20:30:22.068Z,99.90
2018-12-26T20:33:08.460Z,99.90
2018-12-26T20:35:55.084Z,99.90
2018-12-26T20:38:41.904Z,99.90
2018-12-26T20:41:30.464Z,99.90
2018-12-26T20:43:57.385Z,99.90
2018-12-26T20:46:44.518Z,99.90
2018-12-26T20:49:31.245Z,99.90
2018-12-26T20:52:17.677Z,99.90
2018-12-26T20:55:04.372Z,99.90
2018-12-26T20:57:51.006Z,99.90
2018-12-26T21:00:31.147Z,99.90
2018-12-26T21:03:10.831Z,99.90
2018-12-26T21:05:51.136Z,99.90
2018-12-26T21:08:32.006Z,99.90
2018-12-26T21:11:12.173Z,99.90
2018-12-26T21:13:39.053Z,99.90
2018-12-26T21:16:25.586Z,99.90
2018-12-26T21:19:12.125Z,99.90
2018-12-26T21:21:58.659Z,99.90
2018-12-26T21:24:45.195Z,99.90
2018-12-26T21:27:31.663Z,99.90
2018-12-26T21:30:18.222Z,99.90
2018-12-26T21:33:04.959Z,99.90
2018-12-26T21:35:31.942Z,99.90
2018-12-26T21:38:18.445Z,99.90
2018-12-26T21:41:05.034Z,99.90
2018-12-26T21:43:51.563Z,99.90
2018-12-26T21:46:38.231Z,99.90
2018-12-26T21:49:25.028Z,99.90
2018-12-26T21:52:11.633Z,99.90
2018-12-26T21:54:58.306Z,99.90
2018-12-26T21:57:44.734Z,99.90
2018-12-26T22:11:00.988Z,99.90
2018-12-26T22:42:48.203Z,99.90
2018-12-26T22:45:34.632Z,99.90
2018-12-26T22:48:21.176Z,99.90
2018-12-26T22:51:07.813Z,99.90
2018-12-26T22:53:54.663Z,99.90
2018-12-26T22:56:41.164Z,99.90
2018-12-26T22:59:20.618Z,99.90
2018-12-26T23:02:00.981Z,99.90
2018-12-26T23:04:41.545Z,99.90
2018-12-26T23:07:20.875Z,99.90
2018-12-26T23:10:00.890Z,99.90
2018-12-26T23:12:40.911Z,99.90
2018-12-26T23:15:21.410Z,99.90
2018-12-26T23:18:00.934Z,99.90
2018-12-26T23:20:40.972Z,99.90
2018-12-26T23:23:21.118Z,99.90
2018-12-26T23:26:01.257Z,99.90
2018-12-26T23:28:41.578Z,99.90
2018-12-26T23:31:21.385Z,99.90
2018-12-26T23:34:01.802Z,99.90
2018-12-26T23:36:41.688Z,99.90
2018-12-26T23:39:21.806Z,99.90
2018-12-26T23:42:02.209Z,99.90
2018-12-26T23:44:41.790Z,99.90
2018-12-26T23:47:11.147Z,99.90
2018-12-26T23:50:19.797Z,99.90
2018-12-26T23:52:47.997Z,99.90
2018-12-26T23:55:15.410Z,99.90
